Time;durP1;ratioP1;P1;durP2;ratioP2;P2;SDS_P1;SDS_P2;PMS_P1;PMS_P2;Temp;Humidity;BMP_temperature;BMP_pressure;BME280_temperature;BME280_humidity;BME280_pressure;Samples;Min_cycle;Max_cycle;Signal;HPM_P1;HPM_P2
2023/06/15 00:00:46;;;;;;;17.80;13.38;;;;;;;18.45;100.00;100785.06;4957655;28;20030;-80
2023/06/15 00:03:12;;;;;;;19.08;15.18;;;;;;;18.44;100.00;100794.06;4955437;28;20049;-79
2023/06/15 00:05:38;;;;;;;17.75;14.38;;;;;;;18.30;100.00;100797.63;4956968;28;20030;-80
2023/06/15 00:08:04;;;;;;;19.55;15.75;;;;;;;18.20;100.00;100790.72;4965022;28;20436;-80
2023/06/15 00:10:30;;;;;;;20.27;15.50;;;;;;;18.14;100.00;100788.78;4972692;28;20037;-79
2023/06/15 00:12:55;;;;;;;16.52;14.00;;;;;;;18.14;100.00;100796.00;4982229;28;20074;-82
2023/06/15 00:15:22;;;;;;;18.60;14.23;;;;;;;18.21;100.00;100795.06;4940621;28;20041;-83
2023/06/15 00:17:48;;;;;;;15.85;14.18;;;;;;;18.27;100.00;100793.47;4968834;28;20042;-82
2023/06/15 00:20:14;;;;;;;15.55;13.85;;;;;;;18.33;100.00;100803.44;4972870;28;20556;-82
2023/06/15 00:22:41;;;;;;;16.73;14.75;;;;;;;18.34;100.00;100796.25;4969507;28;20053;-80
2023/06/15 00:25:08;;;;;;;15.45;13.80;;;;;;;18.29;100.00;100793.28;4962456;28;20108;-80
2023/06/15 00:27:34;;;;;;;18.25;14.63;;;;;;;18.29;100.00;100798.63;4950101;28;20484;-80
2023/06/15 00:30:02;;;;;;;17.00;14.80;;;;;;;18.20;100.00;100796.06;4953441;28;20038;-80
2023/06/15 00:32:29;;;;;;;17.17;15.02;;;;;;;18.18;100.00;100800.78;4970028;28;20057;-79
2023/06/15 00:34:55;;;;;;;17.88;15.93;;;;;;;18.12;100.00;100800.69;4981074;28;20037;-79
2023/06/15 00:37:21;;;;;;;18.08;14.80;;;;;;;18.14;100.00;100799.47;4939584;28;20053;-79
2023/06/15 00:39:47;;;;;;;18.08;14.82;;;;;;;18.18;100.00;100798.09;4972375;28;20038;-79
2023/06/15 00:42:13;;;;;;;16.45;14.85;;;;;;;18.20;100.00;100795.25;4955078;28;20397;-80
2023/06/15 00:44:38;;;;;;;15.52;13.80;;;;;;;18.26;100.00;100797.19;4954461;28;20489;-80
2023/06/15 00:47:05;;;;;;;15.68;14.07;;;;;;;18.31;100.00;100801.97;4968484;28;20033;-82
2023/06/15 00:49:32;;;;;;;15.15;13.63;;;;;;;18.32;100.00;100800.94;4981630;28;20026;-81
2023/06/15 00:52:00;;;;;;;22.42;15.13;;;;;;;18.29;100.00;100793.28;4968592;28;20448;-83
2023/06/15 00:54:27;;;;;;;15.93;13.95;;;;;;;18.28;100.00;100791.63;4980337;28;20034;-82
2023/06/15 00:56:53;;;;;;;17.77;15.43;;;;;;;18.19;100.00;100788.22;4986471;28;20085;-82
2023/06/15 00:59:20;;;;;;;19.02;15.85;;;;;;;18.12;100.00;100787.31;4986754;28;20074;-82
2023/06/15 01:01:54;;;;;;;24.25;16.90;;;;;;;18.02;100.00;100784.88;4987856;28;20043;-82
2023/06/15 01:04:26;;;;;;;18.20;16.40;;;;;;;18.05;100.00;100784.50;4969575;28;20041;-82
2023/06/15 01:06:56;;;;;;;18.23;16.02;;;;;;;18.11;100.00;100783.78;4998266;28;20492;-82
2023/06/15 01:09:27;;;;;;;19.25;16.80;;;;;;;18.12;100.00;100788.16;4997301;28;20463;-83
2023/06/15 01:11:57;;;;;;;17.65;15.75;;;;;;;18.15;100.00;100790.47;4958255;28;20042;-79
2023/06/15 01:14:25;;;;;;;18.50;16.50;;;;;;;18.16;100.00;100781.41;4989635;28;20034;-79
2023/06/15 01:16:59;;;;;;;17.30;15.30;;;;;;;18.19;100.00;100777.50;4956059;28;20042;-79
2023/06/15 01:20:06;;;;;;;21.00;15.77;;;;;;;18.13;100.00;100776.44;4980899;28;20056;-80
2023/06/15 01:22:57;;;;;;;19.02;17.00;;;;;;;18.02;100.00;100775.03;4977352;28;20049;-79
2023/06/15 01:26:05;;;;;;;20.88;17.38;;;;;;;17.95;100.00;100774.94;4977670;28;20077;-79
2023/06/15 01:28:34;;;;;;;25.95;18.83;;;;;;;17.88;100.00;100774.03;4934186;29;20107;-79
2023/06/15 01:31:01;;;;;;;18.92;17.10;;;;;;;17.82;100.00;100764.88;4964707;28;20045;-80
2023/06/15 01:33:30;;;;;;;23.00;17.67;;;;;;;17.82;100.00;100769.41;4968819;28;20034;-80
2023/06/15 01:35:57;;;;;;;20.25;17.90;;;;;;;17.90;100.00;100774.66;4969290;28;20039;-79
2023/06/15 01:38:25;;;;;;;20.75;17.13;;;;;;;17.96;100.00;100770.44;4955461;28;20041;-79
2023/06/15 01:40:53;;;;;;;21.30;18.30;;;;;;;17.99;100.00;100772.72;4959542;28;20056;-79
2023/06/15 01:43:25;;;;;;;20.05;17.35;;;;;;;18.02;100.00;100777.69;4971657;28;20046;-80
2023/06/15 01:45:54;;;;;;;22.17;18.58;;;;;;;18.04;100.00;100773.00;4991951;28;20038;-79
2023/06/15 01:48:20;;;;;;;19.83;17.50;;;;;;;18.00;100.00;100770.91;4971186;28;20061;-79
2023/06/15 01:50:50;;;;;;;21.27;17.20;;;;;;;17.96;100.00;100763.22;4981956;28;20097;-79
2023/06/15 01:53:16;;;;;;;18.55;16.48;;;;;;;17.92;100.00;100769.13;5003744;28;20160;-78
2023/06/15 01:55:42;;;;;;;19.55;17.33;;;;;;;17.85;100.00;100764.50;4990589;28;20109;-79
2023/06/15 01:58:08;;;;;;;19.42;17.45;;;;;;;17.83;100.00;100771.06;4976357;28;20030;-79
2023/06/15 02:00:34;;;;;;;18.27;16.33;;;;;;;17.79;100.00;100770.59;4989611;28;20038;-79
2023/06/15 02:03:01;;;;;;;21.98;19.08;;;;;;;17.72;100.00;100772.38;4974611;28;20046;-82
2023/06/15 02:05:28;;;;;;;21.83;18.67;;;;;;;17.66;100.00;100770.44;4988105;28;20399;-82
2023/06/15 02:07:54;;;;;;;21.50;16.73;;;;;;;17.65;100.00;100774.94;4986375;28;20046;-82
2023/06/15 02:10:22;;;;;;;20.00;18.00;;;;;;;17.65;100.00;100772.25;4990851;28;20065;-82
2023/06/15 02:12:49;;;;;;;19.90;17.90;;;;;;;17.66;100.00;100765.09;4993016;28;20113;-79
2023/06/15 02:15:18;;;;;;;20.75;17.80;;;;;;;17.66;100.00;100770.44;4952769;28;20092;-79
2023/06/15 02:17:45;;;;;;;20.80;18.70;;;;;;;17.64;100.00;100775.97;4976728;28;20033;-79
2023/06/15 02:20:12;;;;;;;20.08;16.90;;;;;;;17.61;100.00;100774.47;4974360;28;20034;-79
2023/06/15 02:22:38;;;;;;;22.27;17.05;;;;;;;17.58;100.00;100774.03;5001930;28;20523;-79
2023/06/15 02:25:05;;;;;;;25.23;18.63;;;;;;;17.54;100.00;100776.22;4986686;28;20499;-79
2023/06/15 02:27:32;;;;;;;20.20;18.13;;;;;;;17.46;100.00;100773.63;4986533;28;20052;-82
2023/06/15 02:30:00;;;;;;;19.60;17.50;;;;;;;17.38;100.00;100773.69;4971129;28;20030;-82
2023/06/15 02:32:34;;;;;;;21.02;18.65;;;;;;;17.33;100.00;100784.91;5005151;28;20373;-79
2023/06/15 02:35:10;;;;;;;19.80;17.67;;;;;;;17.33;100.00;100784.91;4973944;28;20453;-80
2023/06/15 02:37:37;;;;;;;20.17;17.97;;;;;;;17.30;100.00;100783.44;4975387;28;20096;-79
2023/06/15 02:40:04;;;;;;;20.88;17.13;;;;;;;17.32;100.00;100788.63;4987803;28;20030;-80
2023/06/15 02:42:31;;;;;;;22.85;18.05;;;;;;;17.35;100.00;100785.59;5012352;28;20042;-83
2023/06/15 02:44:56;;;;;;;19.10;17.20;;;;;;;17.37;100.00;100786.25;4955900;28;20048;-82
2023/06/15 02:47:23;;;;;;;17.08;15.38;;;;;;;17.34;100.00;100789.28;5006837;28;20471;-79
2023/06/15 02:49:49;;;;;;;16.85;15.10;;;;;;;17.33;100.00;100787.59;4986379;28;20367;-80
2023/06/15 02:52:16;;;;;;;16.80;15.00;;;;;;;17.34;100.00;100794.63;4988923;28;20579;-79
2023/06/15 02:54:42;;;;;;;19.88;17.48;;;;;;;17.35;100.00;100789.09;5009801;28;20038;-80
2023/06/15 02:57:10;;;;;;;18.55;16.60;;;;;;;17.30;100.00;100793.28;4959635;28;20368;-79
2023/06/15 02:59:50;;;;;;;20.25;17.33;;;;;;;17.25;100.00;100793.84;4991222;28;20072;-78
2023/06/15 03:02:23;;;;;;;21.63;17.42;;;;;;;17.26;100.00;100790.19;4986401;28;20429;-82
2023/06/15 03:04:50;;;;;;;18.83;16.83;;;;;;;17.26;100.00;100792.00;4920054;28;20116;-82
2023/06/15 03:07:22;;;;;;;18.75;16.85;;;;;;;17.26;100.00;100792.00;4970807;28;20045;-78
2023/06/15 03:10:07;;;;;;;22.42;17.73;;;;;;;17.23;100.00;100806.56;4992805;28;20031;-79
2023/06/15 03:12:37;;;;;;;17.92;15.85;;;;;;;17.20;100.00;100789.03;4975356;28;20057;-82
2023/06/15 03:15:03;;;;;;;18.27;16.38;;;;;;;17.18;100.00;100785.75;4989650;28;20123;-82
2023/06/15 03:17:32;;;;;;;18.75;15.73;;;;;;;17.14;100.00;100787.09;4997241;28;20522;-82
2023/06/15 03:19:59;;;;;;;19.10;17.13;;;;;;;17.13;100.00;100792.63;4966296;28;20035;-82
2023/06/15 03:22:25;;;;;;;18.20;16.20;;;;;;;17.08;100.00;100798.50;4980875;28;20030;-79
2023/06/15 03:24:54;;;;;;;18.17;16.48;;;;;;;17.07;100.00;100789.59;4967248;28;20512;-79
2023/06/15 03:27:22;;;;;;;16.88;14.57;;;;;;;17.02;100.00;100785.81;5004286;28;20064;-79
2023/06/15 03:29:51;;;;;;;15.73;14.23;;;;;;;17.02;100.00;100792.00;4974740;28;20476;-79
2023/06/15 03:32:17;;;;;;;19.83;14.73;;;;;;;16.98;100.00;100790.69;4991117;28;20057;-82
2023/06/15 03:34:45;;;;;;;15.88;14.27;;;;;;;16.90;100.00;100791.56;4975143;28;20602;-82
2023/06/15 03:37:11;;;;;;;14.07;12.73;;;;;;;16.78;100.00;100791.16;4969895;28;20080;-79
2023/06/15 03:39:40;;;;;;;16.25;13.90;;;;;;;16.68;100.00;100782.53;4979684;28;20030;-78
2023/06/15 03:42:07;;;;;;;14.75;13.35;;;;;;;16.60;100.00;100786.94;4954183;28;20393;-79
2023/06/15 03:44:33;;;;;;;16.90;15.20;;;;;;;16.57;100.00;100789.13;4989109;28;20033;-79
2023/06/15 03:46:59;;;;;;;15.63;14.10;;;;;;;16.55;100.00;100786.63;4979808;28;20038;-78
2023/06/15 03:49:25;;;;;;;19.83;15.43;;;;;;;16.56;100.00;100790.13;5006327;28;20395;-79
2023/06/15 03:51:51;;;;;;;19.88;15.85;;;;;;;16.52;100.00;100789.66;4955536;28;20034;-79
2023/06/15 03:54:17;;;;;;;18.33;16.42;;;;;;;16.52;100.00;100794.97;4984703;28;20039;-78
2023/06/15 03:56:43;;;;;;;18.92;16.38;;;;;;;16.48;100.00;100788.34;4985190;28;20035;-79
2023/06/15 03:59:09;;;;;;;18.70;16.75;;;;;;;16.45;100.00;100786.03;4968726;28;20039;-79
2023/06/15 04:01:35;;;;;;;17.23;15.45;;;;;;;16.35;100.00;100788.91;4971993;28;20065;-78
2023/06/15 04:04:01;;;;;;;16.38;14.73;;;;;;;16.28;100.00;100790.59;4966811;28;20046;-82
2023/06/15 04:06:27;;;;;;;18.77;16.40;;;;;;;16.23;100.00;100783.13;4975046;28;20039;-81
2023/06/15 04:08:52;;;;;;;17.58;15.80;;;;;;;16.20;100.00;100786.13;4969559;28;20046;-82
2023/06/15 04:11:19;;;;;;;17.63;15.73;;;;;;;16.18;100.00;100786.31;4971782;28;20030;-82
2023/06/15 04:13:46;;;;;;;17.88;15.07;;;;;;;16.22;100.00;100792.13;4984480;28;20074;-78
2023/06/15 04:16:12;;;;;;;18.75;16.75;;;;;;;16.24;100.00;100787.47;4998956;28;20049;-79
2023/06/15 04:18:38;;;;;;;19.77;17.67;;;;;;;16.29;100.00;100786.94;4986207;28;20030;-78
2023/06/15 04:21:06;;;;;;;22.10;18.08;;;;;;;16.31;100.00;100784.94;4986702;28;20118;-79
2023/06/15 04:23:32;;;;;;;18.50;16.60;;;;;;;16.33;100.00;100791.75;4985497;28;20062;-79
2023/06/15 04:26:00;;;;;;;20.33;18.33;;;;;;;16.42;100.00;100794.38;4986724;28;20041;-78
2023/06/15 04:28:27;;;;;;;23.08;19.45;;;;;;;16.47;100.00;100798.19;4987557;28;20031;-82
2023/06/15 04:31:06;;;;;;;20.83;18.73;;;;;;;16.40;100.00;100799.06;4980901;28;20053;-82
2023/06/15 04:33:32;;;;;;;23.25;19.55;;;;;;;16.26;100.00;100798.78;4970023;28;20253;-78
2023/06/15 04:36:01;;;;;;;25.98;19.40;;;;;;;16.28;100.00;100795.94;4984446;28;20042;-78
2023/06/15 04:38:29;;;;;;;23.85;19.85;;;;;;;16.25;100.00;100797.13;5004879;28;20058;-82
2023/06/15 04:40:56;;;;;;;20.42;18.33;;;;;;;15.97;100.00;100795.69;4971041;28;20046;-81
2023/06/15 04:43:23;;;;;;;22.48;17.95;;;;;;;15.90;100.00;100802.72;4984314;28;20042;-78
2023/06/15 04:45:49;;;;;;;23.45;20.58;;;;;;;15.89;100.00;100803.72;4980601;28;20089;-79
2023/06/15 04:48:19;;;;;;;23.92;20.08;;;;;;;15.94;100.00;100811.19;4968589;28;20489;-81
2023/06/15 04:50:48;;;;;;;22.90;20.58;;;;;;;16.02;100.00;100813.88;4974437;28;20098;-82
2023/06/15 04:53:18;;;;;;;24.45;21.40;;;;;;;16.11;100.00;100817.34;4975772;28;20054;-82
2023/06/15 04:55:44;;;;;;;23.98;21.38;;;;;;;16.14;100.00;100816.16;4943163;28;20034;-82
2023/06/15 04:58:11;;;;;;;24.27;21.30;;;;;;;16.24;100.00;100827.47;4957657;28;20137;-79
2023/06/15 05:00:37;;;;;;;24.73;22.05;;;;;;;16.27;100.00;100827.13;4972135;28;20031;-78
2023/06/15 05:03:03;;;;;;;23.77;21.20;;;;;;;16.36;100.00;100828.75;4964378;28;20493;-80
2023/06/15 05:05:29;;;;;;;26.35;22.50;;;;;;;16.41;100.00;100830.06;4972812;28;20033;-78
2023/06/15 05:07:55;;;;;;;26.02;20.83;;;;;;;16.41;100.00;100825.56;4952593;28;20049;-79
2023/06/15 05:10:22;;;;;;;25.08;22.02;;;;;;;16.41;100.00;100825.56;4972929;28;20089;-79
2023/06/15 05:12:50;;;;;;;23.75;21.23;;;;;;;16.37;100.00;100827.72;4988867;28;20039;-79
2023/06/15 05:15:16;;;;;;;24.77;20.45;;;;;;;16.42;100.00;100829.06;4942854;28;20031;-78
2023/06/15 05:17:42;;;;;;;23.15;20.65;;;;;;;16.48;100.00;100823.03;4953660;28;20037;-82
2023/06/15 05:20:08;;;;;;;26.17;23.25;;;;;;;16.48;100.00;100833.72;4969086;28;20026;-82
2023/06/15 05:22:34;;;;;;;34.10;24.02;;;;;;;16.46;100.00;100833.88;4955120;28;20069;-79
2023/06/15 05:25:00;;;;;;;38.30;23.35;;;;;;;16.51;100.00;100837.84;4962035;28;20046;-79
2023/06/15 05:27:27;;;;;;;24.58;21.17;;;;;;;16.48;100.00;100836.38;4958843;28;20129;-79
2023/06/15 05:29:53;;;;;;;25.40;21.00;;;;;;;16.56;100.00;100843.50;4956602;28;20484;-79
2023/06/15 05:32:19;;;;;;;32.20;24.38;;;;;;;16.63;100.00;100841.78;4965348;28;20042;-79
2023/06/15 05:34:46;;;;;;;31.52;23.50;;;;;;;16.67;100.00;100840.44;4967560;28;20031;-79
2023/06/15 05:37:11;;;;;;;32.60;23.05;;;;;;;16.75;100.00;100839.56;4990174;28;20034;-78
2023/06/15 05:39:39;;;;;;;28.30;22.15;;;;;;;16.82;100.00;100851.19;4946323;28;20105;-79
2023/06/15 05:42:05;;;;;;;28.13;22.50;;;;;;;16.86;100.00;100846.34;4959024;28;20048;-79
2023/06/15 05:44:33;;;;;;;27.25;22.92;;;;;;;16.81;100.00;100846.03;4974293;28;20042;-79
2023/06/15 05:47:00;;;;;;;27.50;23.20;;;;;;;16.78;100.00;100849.06;4954913;28;20053;-78
2023/06/15 05:49:26;;;;;;;29.73;23.58;;;;;;;16.79;100.00;100846.22;4990670;28;20057;-79
2023/06/15 05:51:52;;;;;;;27.13;22.48;;;;;;;16.80;100.00;100844.38;4958603;28;20155;-79
2023/06/15 05:54:21;;;;;;;37.28;24.02;;;;;;;16.84;100.00;100845.69;4981190;28;20039;-79
2023/06/15 05:56:47;;;;;;;31.55;23.58;;;;;;;16.87;100.00;100845.31;5001351;28;20034;-81
2023/06/15 05:59:14;;;;;;;28.25;23.90;;;;;;;16.93;100.00;100849.16;4970304;28;20037;-82
2023/06/15 06:01:41;;;;;;;33.00;23.58;;;;;;;16.96;100.00;100844.25;4959929;28;20042;-79
2023/06/15 06:04:06;;;;;;;29.10;25.25;;;;;;;17.02;100.00;100841.91;4987676;28;20064;-79
2023/06/15 06:06:33;;;;;;;36.28;26.88;;;;;;;17.06;100.00;100844.03;4988220;28;20038;-79
2023/06/15 06:08:59;;;;;;;35.95;26.85;;;;;;;17.07;100.00;100847.56;4954589;28;20627;-79
2023/06/15 06:11:26;;;;;;;31.48;27.02;;;;;;;17.09;100.00;100850.88;4957649;28;20470;-79
2023/06/15 06:13:55;;;;;;;31.77;26.45;;;;;;;17.11;100.00;100849.72;4988165;28;20122;-78
2023/06/15 06:16:21;;;;;;;37.40;26.70;;;;;;;17.19;100.00;100848.81;4981080;28;20475;-78
2023/06/15 06:18:47;;;;;;;34.42;26.98;;;;;;;17.28;100.00;100857.59;4894582;28;20125;-78
2023/06/15 06:21:13;;;;;;;46.47;30.13;;;;;;;17.28;100.00;100856.78;4980538;28;20033;-80
2023/06/15 06:23:40;;;;;;;33.05;27.25;;;;;;;17.30;100.00;100855.59;4990027;28;20030;-79
2023/06/15 06:26:07;;;;;;;35.22;28.45;;;;;;;17.34;100.00;100850.72;4969547;28;20121;-78
2023/06/15 06:28:33;;;;;;;43.08;29.67;;;;;;;17.39;100.00;100856.34;4972181;28;20038;-78
2023/06/15 06:30:58;;;;;;;38.63;28.92;;;;;;;17.42;100.00;100856.00;4989722;28;20041;-77
2023/06/15 06:33:24;;;;;;;35.50;27.65;;;;;;;17.44;100.00;100861.97;4982051;28;20057;-81
2023/06/15 06:35:50;;;;;;;33.70;26.40;;;;;;;17.50;100.00;100865.78;4990409;28;20026;-81
2023/06/15 06:38:16;;;;;;;32.00;26.25;;;;;;;17.58;100.00;100870.22;4958615;28;20058;-78
2023/06/15 06:40:42;;;;;;;32.22;25.73;;;;;;;17.63;100.00;100870.50;4999305;28;20018;-78
2023/06/15 06:43:07;;;;;;;34.92;27.65;;;;;;;17.62;100.00;100874.19;4986961;28;20061;-80
2023/06/15 06:45:33;;;;;;;43.25;27.17;;;;;;;17.58;100.00;100879.06;4985554;28;20038;-79
2023/06/15 06:47:59;;;;;;;33.90;26.65;;;;;;;17.60;100.00;100876.22;4971563;28;20034;-79
2023/06/15 06:50:25;;;;;;;37.70;28.88;;;;;;;17.64;100.00;100874.84;4949817;28;20042;-80
2023/06/15 06:52:50;;;;;;;39.28;28.30;;;;;;;17.72;100.00;100874.78;4985548;28;20041;-80
2023/06/15 06:55:16;;;;;;;37.03;28.25;;;;;;;17.80;100.00;100875.72;4961153;28;20053;-79
2023/06/15 06:57:42;;;;;;;37.95;29.10;;;;;;;17.83;100.00;100876.19;5002797;28;20033;-79
2023/06/15 07:00:10;;;;;;;37.65;28.08;;;;;;;17.88;100.00;100881.00;5004210;28;20026;-80
2023/06/15 07:02:36;;;;;;;32.13;26.63;;;;;;;17.95;100.00;100878.38;5010510;28;20033;-79
2023/06/15 07:05:01;;;;;;;32.10;24.85;;;;;;;18.01;100.00;100877.69;4976345;28;20045;-81
2023/06/15 07:07:27;;;;;;;30.67;25.75;;;;;;;18.07;100.00;100882.31;4997171;28;20492;-82
2023/06/15 07:09:53;;;;;;;31.17;25.92;;;;;;;18.07;100.00;100873.44;5012074;28;20033;-82
2023/06/15 07:12:19;;;;;;;28.17;23.65;;;;;;;18.16;100.00;100879.53;4980733;28;20057;-82
2023/06/15 07:14:45;;;;;;;27.70;24.65;;;;;;;18.18;100.00;100880.19;4965109;28;20790;-82
2023/06/15 07:17:12;;;;;;;28.02;23.80;;;;;;;18.19;100.00;100874.66;4994365;28;20041;-82
2023/06/15 07:19:37;;;;;;;27.83;22.48;;;;;;;18.26;100.00;100884.63;5000272;28;20025;-83
2023/06/15 07:22:03;;;;;;;30.45;22.55;;;;;;;18.28;100.00;100888.81;4981141;28;20042;-80
2023/06/15 07:24:29;;;;;;;29.08;22.27;;;;;;;18.28;100.00;100878.09;5004966;28;20133;-80
2023/06/15 07:26:56;;;;;;;24.67;21.40;;;;;;;18.33;100.00;100880.22;4982763;28;20148;-80
2023/06/15 07:29:22;;;;;;;26.15;21.20;;;;;;;18.34;100.00;100879.19;4987194;28;20416;-80
2023/06/15 07:31:48;;;;;;;23.80;21.25;;;;;;;18.33;100.00;100874.88;4969735;28;20034;-80
2023/06/15 07:34:13;;;;;;;26.45;21.63;;;;;;;18.37;100.00;100883.31;4990952;28;20538;-80
2023/06/15 07:36:40;;;;;;;23.50;19.88;;;;;;;18.45;100.00;100880.56;4985258;28;20047;-81
2023/06/15 07:39:05;;;;;;;22.23;19.70;;;;;;;18.53;100.00;100883.16;4962101;28;20685;-80
2023/06/15 07:41:31;;;;;;;23.13;20.08;;;;;;;18.61;100.00;100879.53;4984230;28;20025;-81
2023/06/15 07:43:57;;;;;;;23.23;20.83;;;;;;;18.74;100.00;100883.38;4997784;28;20049;-80
2023/06/15 07:46:22;;;;;;;22.80;20.45;;;;;;;18.79;100.00;100887.16;4972077;28;20109;-80
2023/06/15 07:48:48;;;;;;;23.23;20.83;;;;;;;18.88;100.00;100887.03;4972571;28;20033;-81
2023/06/15 07:51:14;;;;;;;26.38;20.88;;;;;;;18.86;100.00;100886.41;4955592;28;20169;-81
2023/06/15 07:53:40;;;;;;;22.45;20.17;;;;;;;18.91;100.00;100883.97;4954009;28;20082;-81
2023/06/15 07:56:06;;;;;;;20.95;18.70;;;;;;;18.97;100.00;100885.91;4965673;28;20042;-81
2023/06/15 07:58:31;;;;;;;23.70;21.23;;;;;;;19.05;100.00;100891.16;4987185;28;20026;-81
2023/06/15 08:00:57;;;;;;;21.80;19.63;;;;;;;19.14;100.00;100889.22;4985392;28;20503;-81
2023/06/15 08:03:24;;;;;;;22.95;19.67;;;;;;;19.21;100.00;100886.59;4958810;28;20042;-81
2023/06/15 08:05:49;;;;;;;21.45;19.35;;;;;;;19.32;100.00;100883.41;4972850;28;20096;-81
2023/06/15 08:08:15;;;;;;;23.75;20.50;;;;;;;19.49;100.00;100887.66;4977064;28;20038;-81
2023/06/15 08:10:41;;;;;;;22.10;19.73;;;;;;;19.56;100.00;100885.88;4973813;28;20061;-81
2023/06/15 08:13:07;;;;;;;21.52;19.33;;;;;;;19.66;100.00;100881.00;4997524;28;20033;-82
2023/06/15 08:15:33;;;;;;;19.17;17.27;;;;;;;19.68;100.00;100884.34;5004371;28;20034;-81
2023/06/15 08:17:59;;;;;;;21.23;18.63;;;;;;;19.70;100.00;100893.00;4985201;28;20400;-86
2023/06/15 08:20:26;;;;;;;20.88;18.40;;;;;;;19.67;100.00;100889.91;4951852;28;20036;-85
2023/06/15 08:22:51;;;;;;;19.50;17.35;;;;;;;19.64;100.00;100893.78;4986166;28;20069;-83
2023/06/15 08:25:17;;;;;;;23.42;19.02;;;;;;;19.61;100.00;100891.47;4988241;28;20076;-83
2023/06/15 08:27:43;;;;;;;20.15;18.02;;;;;;;19.64;100.00;100896.47;4982576;28;20065;-82
2023/06/15 08:30:10;;;;;;;21.92;18.52;;;;;;;19.71;100.00;100893.84;4978878;28;20038;-81
2023/06/15 08:32:36;;;;;;;20.73;18.58;;;;;;;19.84;100.00;100890.44;4979904;28;20518;-82
2023/06/15 08:35:01;;;;;;;21.10;18.30;;;;;;;19.95;100.00;100889.06;4961796;28;20364;-81
2023/06/15 08:37:28;;;;;;;19.83;17.73;;;;;;;20.02;100.00;100887.28;4976620;28;20045;-81
2023/06/15 08:39:56;;;;;;;22.50;18.75;;;;;;;20.13;100.00;100887.75;4958659;28;20053;-81
2023/06/15 08:42:25;;;;;;;19.75;17.67;;;;;;;20.18;100.00;100888.81;4993402;28;20042;-84
2023/06/15 08:44:54;;;;;;;21.63;17.40;;;;;;;20.24;100.00;100884.53;4982298;28;20097;-82
2023/06/15 08:47:21;;;;;;;20.40;17.10;;;;;;;20.29;100.00;100874.00;4986453;28;20038;-80
2023/06/15 08:49:48;;;;;;;22.42;16.63;;;;;;;20.40;100.00;100877.16;5004275;28;20034;-80
2023/06/15 08:52:16;;;;;;;19.17;17.35;;;;;;;20.50;100.00;100876.78;5003644;28;20046;-79
2023/06/15 08:54:42;;;;;;;19.80;17.33;;;;;;;20.57;100.00;100881.16;4945774;28;20042;-81
2023/06/15 08:57:09;;;;;;;18.63;16.67;;;;;;;20.57;100.00;100873.13;4972097;28;20113;-82
2023/06/15 08:59:35;;;;;;;21.88;17.40;;;;;;;20.66;100.00;100873.75;4951259;28;20042;-82
2023/06/15 09:02:02;;;;;;;18.15;16.35;;;;;;;20.72;100.00;100871.31;4951442;28;20045;-84
2023/06/15 09:04:31;;;;;;;23.63;17.08;;;;;;;20.83;100.00;100871.53;4976915;28;20472;-84
2023/06/15 09:07:00;;;;;;;17.85;16.05;;;;;;;20.92;100.00;100876.75;4946685;28;20049;-83
2023/06/15 09:09:26;;;;;;;20.75;17.90;;;;;;;20.97;100.00;100868.09;4974529;28;20069;-83
2023/06/15 09:11:51;;;;;;;22.73;18.80;;;;;;;20.88;100.00;100870.91;4969608;28;21593;-81
2023/06/15 09:14:19;;;;;;;18.55;15.80;;;;;;;20.80;100.00;100866.56;4976166;28;20030;-79
2023/06/15 09:16:46;;;;;;;18.73;16.02;;;;;;;20.87;100.00;100871.13;4941017;28;20035;-81
2023/06/15 09:19:13;;;;;;;18.98;16.83;;;;;;;20.90;100.00;100868.88;4959480;28;20125;-81
2023/06/15 09:21:48;;;;;;;22.38;15.50;;;;;;;21.04;100.00;100864.38;4963116;28;20026;-81
2023/06/15 09:24:16;;;;;;;17.80;16.02;;;;;;;21.17;100.00;100863.56;4968224;28;20045;-82
2023/06/15 09:26:44;;;;;;;18.15;16.15;;;;;;;21.28;100.00;100858.59;4941672;28;20356;-80
2023/06/15 09:29:11;;;;;;;19.92;16.10;;;;;;;21.32;100.00;100873.31;4959576;28;20030;-77
2023/06/15 09:31:39;;;;;;;18.65;16.42;;;;;;;21.33;100.00;100861.50;4958098;28;20026;-79
2023/06/15 09:34:07;;;;;;;17.00;15.38;;;;;;;21.39;100.00;100866.06;4962351;28;20038;-76
2023/06/15 09:36:53;;;;;;;20.13;15.57;;;;;;;21.46;100.00;100871.44;4991668;28;20038;-77
2023/06/15 09:39:23;;;;;;;19.40;15.80;;;;;;;21.30;100.00;100868.13;4984898;28;21164;-79
2023/06/15 09:41:53;;;;;;;17.58;15.02;;;;;;;21.27;100.00;100870.41;4973012;28;20567;-78
2023/06/15 09:44:21;;;;;;;17.35;15.55;;;;;;;21.39;100.00;100866.06;4979693;28;20330;-76
2023/06/15 09:46:51;;;;;;;22.23;14.82;;;;;;;21.54;100.00;100871.25;4984641;28;21954;-77
2023/06/15 09:49:27;;;;;;;15.52;14.02;;;;;;;21.65;100.00;100875.16;4968573;28;20129;-79
2023/06/15 09:51:55;;;;;;;15.38;13.65;;;;;;;21.69;100.00;100870.22;4984001;28;20419;-80
2023/06/15 09:54:28;;;;;;;17.40;13.95;;;;;;;21.73;100.00;100871.44;4947237;28;20048;-81
2023/06/15 09:56:55;;;;;;;16.42;13.80;;;;;;;21.80;100.00;100879.53;4957039;28;20472;-83
2023/06/15 09:59:21;;;;;;;17.17;15.45;;;;;;;21.92;100.00;100866.25;4954597;28;20177;-82
2023/06/15 10:01:49;;;;;;;26.05;15.10;;;;;;;21.95;100.00;100871.22;4955290;28;20545;-81
2023/06/15 10:04:17;;;;;;;16.55;14.82;;;;;;;22.03;100.00;100870.16;4944322;28;20306;-82
2023/06/15 10:06:45;;;;;;;20.23;13.52;;;;;;;22.09;100.00;100871.19;4940210;28;20444;-81
2023/06/15 10:09:16;;;;;;;15.98;12.90;;;;;;;22.22;100.00;100875.72;4971811;28;20031;-80
2023/06/15 10:11:45;;;;;;;16.40;14.70;;;;;;;22.22;100.00;100865.78;4966453;28;20427;-82
2023/06/15 10:14:47;;;;;;;15.60;13.68;;;;;;;22.35;100.00;100867.59;4959140;28;20149;-82
2023/06/15 10:17:16;;;;;;;16.70;13.60;;;;;;;22.48;100.00;100869.41;4936518;28;20122;-83
2023/06/15 10:19:44;;;;;;;14.73;13.18;;;;;;;22.54;100.00;100862.31;4976393;28;20372;-83
2023/06/15 10:22:22;;;;;;;12.93;11.77;;;;;;;22.68;100.00;100855.88;4936374;28;20064;-81
2023/06/15 10:24:49;;;;;;;14.07;12.60;;;;;;;22.76;100.00;100860.19;4956736;28;21301;-81
2023/06/15 10:27:15;;;;;;;18.27;13.68;;;;;;;22.87;100.00;100861.34;4957409;28;20042;-82
2023/06/15 10:29:54;;;;;;;14.98;13.45;;;;;;;22.80;100.00;100858.72;4972527;28;20165;-81
2023/06/15 10:32:36;;;;;;;16.90;12.35;;;;;;;22.59;100.00;100853.59;4972416;28;20038;-82
2023/06/15 10:35:07;;;;;;;13.90;11.88;;;;;;;22.58;100.00;100857.34;4959811;28;20065;-81
2023/06/15 10:38:15;;;;;;;14.70;12.95;;;;;;;22.54;100.00;100863.16;4964879;28;20080;-81
2023/06/15 10:40:47;;;;;;;13.60;12.20;;;;;;;22.60;100.00;100866.09;4972999;28;20133;-80
2023/06/15 10:43:20;;;;;;;18.13;13.35;;;;;;;22.60;100.00;100855.31;4940260;28;20057;-79
2023/06/15 10:45:48;;;;;;;13.80;12.20;;;;;;;22.60;100.00;100849.91;4974560;28;20073;-84
2023/06/15 10:48:26;;;;;;;13.38;12.00;;;;;;;22.79;100.00;100848.97;4974677;28;20559;-82
2023/06/15 10:51:01;;;;;;;12.15;10.85;;;;;;;22.97;100.00;100852.81;4971173;28;20034;-81
2023/06/15 10:53:28;;;;;;;15.27;11.57;;;;;;;23.04;100.00;100848.22;4952233;28;20042;-82
2023/06/15 10:55:58;;;;;;;14.10;11.15;;;;;;;23.12;100.00;100852.50;4974840;28;20061;-80
2023/06/15 10:58:28;;;;;;;17.98;12.40;;;;;;;23.21;100.00;100850.34;4967077;28;20548;-82
2023/06/15 11:01:13;;;;;;;12.45;10.43;;;;;;;23.22;100.00;100857.38;4976478;28;20128;-81
2023/06/15 11:03:41;;;;;;;16.15;10.98;;;;;;;23.32;100.00;100854.22;5006127;28;20046;-83
2023/06/15 11:06:13;;;;;;;14.20;10.68;;;;;;;23.43;100.00;100852.69;4974814;28;20128;-83